Time;durP1;ratioP1;P1;durP2;ratioP2;P2;SDS_P1;SDS_P2;PMS_P1;PMS_P2;Temp;Humidity;BMP_temperature;BMP_pressure;BME280_temperature;BME280_humidity;BME280_pressure;Samples;Min_cycle;Max_cycle;Signal;HPM_P1;HPM_P2
2022/09/02 00:01:00;;;;;;;3.95;1.83;;;11.20;99.90;;;;;;5093170;28;20107;-76
2022/09/02 00:03:28;;;;;;;3.90;2.28;;;11.20;99.90;;;;;;5093457;28;20071;-81
2022/09/02 00:05:53;;;;;;;1.83;1.73;;;11.10;99.90;;;;;;5094402;28;20061;-76
2022/09/02 00:08:19;;;;;;;2.00;1.75;;;11.10;99.90;;;;;;5093481;28;20404;-76
2022/09/02 00:10:45;;;;;;;2.50;1.80;;;11.10;99.90;;;;;;5092833;28;20386;-76
2022/09/02 00:13:13;;;;;;;7.25;2.78;;;11.00;99.90;;;;;;5094636;28;20028;-76
2022/09/02 00:15:40;;;;;;;2.80;2.60;;;11.00;99.90;;;;;;5092829;28;20070;-76
2022/09/02 00:18:11;;;;;;;2.13;1.90;;;11.00;99.90;;;;;;5094613;28;20123;-77
2022/09/02 00:20:39;;;;;;;2.65;2.00;;;10.90;99.90;;;;;;5092846;28;20020;-80
2022/09/02 00:23:07;;;;;;;4.22;1.98;;;10.90;99.90;;;;;;5094508;28;20020;-76
2022/09/02 00:25:33;;;;;;;2.47;1.98;;;10.80;99.90;;;;;;5093968;28;20039;-80
2022/09/02 00:27:59;;;;;;;1.90;1.80;;;10.80;99.90;;;;;;5094308;28;20381;-75
2022/09/02 00:30:25;;;;;;;2.10;1.90;;;10.70;99.90;;;;;;5093715;28;20020;-76
2022/09/02 00:32:50;;;;;;;3.63;1.70;;;10.70;99.90;;;;;;5093104;28;20016;-76
2022/09/02 00:35:16;;;;;;;3.05;2.00;;;10.70;99.90;;;;;;5092558;28;20024;-82
2022/09/02 00:37:42;;;;;;;2.92;2.28;;;10.60;99.90;;;;;;5093796;28;20056;-81
2022/09/02 00:40:10;;;;;;;3.53;1.80;;;10.60;99.90;;;;;;5093618;28;20071;-81
2022/09/02 00:42:36;;;;;;;2.55;1.73;;;10.60;99.90;;;;;;5094157;28;20103;-75
2022/09/02 00:45:03;;;;;;;4.22;2.22;;;10.50;99.90;;;;;;5093613;28;20052;-81
2022/09/02 00:47:32;;;;;;;2.03;1.80;;;10.50;99.90;;;;;;5092649;28;20047;-75
2022/09/02 00:49:59;;;;;;;5.28;2.30;;;10.40;99.90;;;;;;5092378;28;20028;-76
2022/09/02 00:52:31;;;;;;;4.40;2.10;;;10.40;99.90;;;;;;5092642;28;20032;-80
2022/09/02 00:55:09;;;;;;;3.22;1.90;;;10.40;99.90;;;;;;5092192;28;20515;-76
2022/09/02 00:57:59;;;;;;;3.83;2.45;;;10.40;99.90;;;;;;5092512;28;20032;-80
2022/09/02 01:00:29;;;;;;;2.60;2.33;;;10.40;99.90;;;;;;5092006;28;20073;-80
2022/09/02 01:02:58;;;;;;;1.90;1.70;;;10.40;99.90;;;;;;5093666;28;20435;-76
2022/09/02 01:05:28;;;;;;;7.47;1.88;;;10.40;99.90;;;;;;5092035;28;20039;-76
2022/09/02 01:07:55;;;;;;;2.25;1.75;;;10.30;99.90;;;;;;5093729;28;20036;-82
2022/09/02 01:10:25;;;;;;;2.70;2.13;;;10.30;99.90;;;;;;5093285;28;20150;-75
2022/09/02 01:13:18;;;;;;;3.47;1.90;;;10.20;99.90;;;;;;5093601;28;20368;-76
2022/09/02 01:15:48;;;;;;;2.70;2.50;;;10.10;99.90;;;;;;5092362;28;20188;-80
2022/09/02 01:18:19;;;;;;;2.00;1.88;;;10.10;99.90;;;;;;5093630;28;20157;-80
2022/09/02 01:20:46;;;;;;;2.97;2.17;;;10.00;99.90;;;;;;5091868;28;20028;-80
2022/09/02 01:23:13;;;;;;;2.35;2.20;;;10.00;99.90;;;;;;5092255;28;20024;-76
2022/09/02 01:25:40;;;;;;;3.08;2.30;;;10.00;99.90;;;;;;5093220;28;20024;-75
2022/09/02 01:28:11;;;;;;;3.00;2.70;;;9.90;99.90;;;;;;5091932;28;20024;-75
2022/09/02 01:30:40;;;;;;;2.83;2.03;;;9.80;99.90;;;;;;5093055;28;20030;-75
2022/09/02 01:33:07;;;;;;;2.38;2.17;;;9.80;99.90;;;;;;5093350;28;20016;-75
2022/09/02 01:35:33;;;;;;;2.28;1.92;;;9.80;99.90;;;;;;5092963;28;20039;-81
2022/09/02 01:38:00;;;;;;;2.25;1.75;;;9.70;99.90;;;;;;5093205;28;20021;-81
2022/09/02 01:40:27;;;;;;;3.10;1.85;;;9.70;99.90;;;;;;5091451;28;20439;-75
2022/09/02 01:42:57;;;;;;;2.20;2.00;;;9.70;99.90;;;;;;5091859;28;20119;-82
2022/09/02 01:45:23;;;;;;;2.55;1.83;;;9.60;99.90;;;;;;5092826;28;20028;-81
2022/09/02 01:47:49;;;;;;;2.65;2.28;;;9.60;99.90;;;;;;5093138;28;20512;-81
2022/09/02 01:50:15;;;;;;;4.90;2.10;;;9.50;99.90;;;;;;5096299;28;20035;-75
2022/09/02 01:52:40;;;;;;;3.13;1.80;;;9.50;99.90;;;;;;5096136;28;20020;-81
2022/09/02 01:55:07;;;;;;;2.13;1.98;;;9.40;99.90;;;;;;5097046;28;20030;-81
2022/09/02 01:57:32;;;;;;;6.50;2.08;;;9.30;99.90;;;;;;5097235;28;20059;-76
2022/09/02 02:00:00;;;;;;;3.65;2.30;;;9.30;99.90;;;;;;5096751;28;20120;-75
2022/09/02 02:02:26;;;;;;;2.55;1.85;;;9.20;99.90;;;;;;5097203;28;20016;-80
2022/09/02 02:04:53;;;;;;;2.67;1.77;;;9.20;99.90;;;;;;5096880;28;20508;-73
2022/09/02 02:07:21;;;;;;;2.25;1.55;;;9.10;99.90;;;;;;5096870;28;20057;-74
2022/09/02 02:09:47;;;;;;;2.63;2.20;;;9.10;99.90;;;;;;5095373;28;20016;-74
2022/09/02 02:12:14;;;;;;;4.40;2.30;;;9.00;99.90;;;;;;5097047;28;20468;-80
2022/09/02 02:14:40;;;;;;;1.90;1.80;;;9.00;99.90;;;;;;5096051;28;20478;-80
2022/09/02 02:17:06;;;;;;;3.17;2.13;;;8.90;99.90;;;;;;5096496;28;20108;-80
2022/09/02 02:19:32;;;;;;;2.97;2.30;;;8.90;99.90;;;;;;5094612;28;20039;-82
2022/09/02 02:21:58;;;;;;;2.75;2.10;;;8.80;99.90;;;;;;5096936;28;20024;-82
2022/09/02 02:24:24;;;;;;;2.13;1.90;;;8.80;99.90;;;;;;5096114;28;20028;-75
2022/09/02 02:26:50;;;;;;;3.30;1.70;;;8.90;99.90;;;;;;5095470;28;20020;-81
2022/09/02 02:29:16;;;;;;;2.08;1.83;;;8.80;99.90;;;;;;5094975;28;20032;-75
2022/09/02 02:31:42;;;;;;;3.22;2.00;;;8.90;99.90;;;;;;5095484;28;20065;-76
2022/09/02 02:34:09;;;;;;;2.42;2.22;;;8.90;99.90;;;;;;5094796;28;20105;-80
2022/09/02 02:36:35;;;;;;;2.72;2.08;;;8.90;99.90;;;;;;5095283;28;20035;-80
2022/09/02 02:39:02;;;;;;;1.80;1.70;;;8.90;99.90;;;;;;5094555;28;20461;-76
2022/09/02 02:41:30;;;;;;;2.05;1.67;;;8.90;99.90;;;;;;5096462;28;20036;-76
2022/09/02 02:43:55;;;;;;;2.15;2.03;;;8.70;99.90;;;;;;5095169;28;20020;-81
2022/09/02 02:46:21;;;;;;;1.70;1.60;;;8.70;99.90;;;;;;5096026;28;20150;-76
2022/09/02 02:48:47;;;;;;;2.08;1.80;;;8.60;99.90;;;;;;5096123;28;20507;-80
2022/09/02 02:51:13;;;;;;;5.15;1.95;;;8.70;99.90;;;;;;5094824;28;20027;-75
2022/09/02 02:53:39;;;;;;;1.75;1.65;;;8.70;99.90;;;;;;5096186;28;20031;-74
2022/09/02 02:56:06;;;;;;;2.38;1.65;;;8.70;99.90;;;;;;5095818;28;20451;-75
2022/09/02 02:58:32;;;;;;;2.25;1.60;;;8.60;99.90;;;;;;5095956;28;20043;-74
2022/09/02 03:00:57;;;;;;;4.20;1.70;;;8.60;99.90;;;;;;5093966;28;20469;-75
2022/09/02 03:03:23;;;;;;;1.85;1.63;;;8.60;99.90;;;;;;5094479;28;20047;-75
2022/09/02 03:05:50;;;;;;;1.63;1.40;;;8.70;99.90;;;;;;5094213;28;20447;-75
2022/09/02 03:08:20;;;;;;;1.85;1.70;;;8.70;99.90;;;;;;5095819;28;20047;-75
2022/09/02 03:10:47;;;;;;;3.40;1.75;;;8.80;99.90;;;;;;5095640;28;20446;-75
2022/09/02 03:13:14;;;;;;;1.98;1.25;;;8.70;99.90;;;;;;5095989;28;20024;-75
2022/09/02 03:15:40;;;;;;;1.75;1.63;;;8.90;99.90;;;;;;5095593;28;20027;-74
2022/09/02 03:18:06;;;;;;;5.00;2.08;;;8.90;99.90;;;;;;5095676;28;20053;-75
2022/09/02 03:20:32;;;;;;;9.77;2.50;;;8.90;99.90;;;;;;5094020;28;20488;-80
2022/09/02 03:22:58;;;;;;;4.97;1.90;;;8.90;99.90;;;;;;5095524;28;20028;-81
2022/09/02 03:25:25;;;;;;;3.60;1.83;;;8.90;99.90;;;;;;5095172;28;20027;-81
2022/09/02 03:27:52;;;;;;;2.78;1.65;;;8.80;99.90;;;;;;5094159;28;20028;-81
2022/09/02 03:30:21;;;;;;;2.67;1.52;;;8.80;99.90;;;;;;5095223;28;20031;-81
2022/09/02 03:32:47;;;;;;;1.80;1.67;;;8.80;99.90;;;;;;5094260;28;20545;-75
2022/09/02 03:35:16;;;;;;;2.15;1.70;;;8.70;99.90;;;;;;5095193;28;20051;-80
2022/09/02 03:37:42;;;;;;;2.75;1.90;;;8.70;99.90;;;;;;5094115;28;20466;-80
2022/09/02 03:40:12;;;;;;;1.95;1.52;;;8.60;99.90;;;;;;5093634;28;20027;-80
2022/09/02 03:42:38;;;;;;;1.70;1.60;;;8.60;99.90;;;;;;5094136;28;20469;-82
2022/09/02 03:45:05;;;;;;;2.05;1.45;;;8.60;99.90;;;;;;5093544;28;20165;-75
2022/09/02 03:47:32;;;;;;;4.93;1.40;;;8.60;99.90;;;;;;5093863;28;20028;-80
2022/09/02 03:49:58;;;;;;;1.92;1.73;;;8.50;99.90;;;;;;5093406;28;20039;-80
2022/09/02 03:52:24;;;;;;;2.42;1.80;;;8.50;99.90;;;;;;5093879;28;20478;-75
2022/09/02 03:54:50;;;;;;;2.03;1.67;;;8.60;99.90;;;;;;5093209;28;20028;-75
2022/09/02 03:57:15;;;;;;;1.73;1.60;;;8.60;99.90;;;;;;5093840;28;20093;-75
2022/09/02 03:59:41;;;;;;;4.07;1.70;;;8.60;99.90;;;;;;5094621;28;20099;-75
2022/09/02 04:02:07;;;;;;;2.08;1.90;;;8.70;99.90;;;;;;5093698;28;20031;-75
2022/09/02 04:04:34;;;;;;;4.35;1.90;;;8.80;99.90;;;;;;5094503;28;20537;-80
2022/09/02 04:06:59;;;;;;;2.30;1.65;;;8.80;99.90;;;;;;5093485;28;20123;-74
2022/09/02 04:09:25;;;;;;;2.28;1.60;;;8.80;99.90;;;;;;5094465;28;20071;-79
2022/09/02 04:11:51;;;;;;;4.38;2.00;;;8.90;99.90;;;;;;5093943;28;20053;-82
2022/09/02 04:14:17;;;;;;;2.58;1.67;;;8.90;99.90;;;;;;5094290;28;20032;-82
2022/09/02 04:16:43;;;;;;;1.90;1.80;;;8.90;99.90;;;;;;5093419;28;20020;-76
2022/09/02 04:19:09;;;;;;;4.18;1.50;;;9.00;99.90;;;;;;5092866;28;20026;-82
2022/09/02 04:21:37;;;;;;;1.80;1.50;;;9.00;99.90;;;;;;5093435;28;20396;-75
2022/09/02 04:24:08;;;;;;;2.67;1.65;;;9.00;99.90;;;;;;5092889;28;20031;-79
2022/09/02 04:26:35;;;;;;;3.13;1.70;;;9.10;99.90;;;;;;5093293;28;20020;-74
2022/09/02 04:29:01;;;;;;;2.53;1.65;;;9.10;99.90;;;;;;5094004;28;20478;-75
2022/09/02 04:31:29;;;;;;;1.60;1.50;;;9.10;99.90;;;;;;5094376;28;20027;-76
2022/09/02 04:33:56;;;;;;;2.28;1.35;;;9.10;99.90;;;;;;5093025;28;20055;-75
2022/09/02 04:36:22;;;;;;;1.73;1.63;;;9.20;99.90;;;;;;5093729;28;20362;-75
2022/09/02 04:38:48;;;;;;;4.78;1.83;;;9.20;99.90;;;;;;5092949;28;20068;-75
2022/09/02 04:41:21;;;;;;;3.85;1.88;;;9.30;99.90;;;;;;5093781;28;20107;-76
2022/09/02 04:43:48;;;;;;;3.55;1.88;;;9.30;99.90;;;;;;5092886;28;20035;-75
2022/09/02 04:46:15;;;;;;;3.97;2.60;;;9.40;99.90;;;;;;5093757;28;20097;-80
2022/09/02 04:48:41;;;;;;;2.65;1.80;;;9.40;99.90;;;;;;5092697;28;20035;-74
2022/09/02 04:51:13;;;;;;;3.63;1.83;;;9.50;99.90;;;;;;5092203;28;20019;-80
2022/09/02 04:53:39;;;;;;;2.95;2.08;;;9.60;99.90;;;;;;5090758;28;20042;-80
2022/09/02 04:56:07;;;;;;;4.32;1.95;;;9.70;99.90;;;;;;5078613;28;20024;-80
2022/09/02 04:58:34;;;;;;;3.17;2.00;;;9.80;99.90;;;;;;5093769;28;20024;-80
2022/09/02 05:01:05;;;;;;;3.90;1.70;;;9.90;99.90;;;;;;5091965;28;20016;-80
2022/09/02 05:03:31;;;;;;;6.78;1.70;;;10.00;99.90;;;;;;5084194;28;20033;-79
2022/09/02 05:05:58;;;;;;;5.68;1.73;;;10.20;99.90;;;;;;5091937;28;20386;-75
2022/09/02 05:08:24;;;;;;;3.75;1.50;;;10.40;99.90;;;;;;5092344;28;20032;-79
2022/09/02 05:10:52;;;;;;;1.98;1.85;;;10.40;99.90;;;;;;5092129;28;20079;-76
2022/09/02 05:13:18;;;;;;;1.75;1.60;;;10.60;99.90;;;;;;5093490;28;20535;-76
2022/09/02 05:15:44;;;;;;;3.95;1.75;;;10.70;99.90;;;;;;5091738;28;20499;-77
2022/09/02 05:18:11;;;;;;;4.28;1.70;;;10.90;99.90;;;;;;5093684;28;20028;-76
2022/09/02 05:20:42;;;;;;;2.47;2.28;;;11.00;99.90;;;;;;5091744;28;20028;-81
2022/09/02 05:23:10;;;;;;;2.00;1.60;;;11.20;99.90;;;;;;5093562;28;20077;-81
2022/09/02 05:25:37;;;;;;;2.53;2.10;;;11.30;99.90;;;;;;5092919;28;20070;-76
2022/09/02 05:28:04;;;;;;;3.80;1.90;;;11.50;99.90;;;;;;5093444;28;20118;-76
2022/09/02 05:30:30;;;;;;;2.08;1.63;;;11.60;99.90;;;;;;5092853;28;20020;-80
2022/09/02 05:32:56;;;;;;;2.75;1.88;;;11.70;99.90;;;;;;5092817;28;20016;-80
2022/09/02 05:35:22;;;;;;;1.83;1.52;;;11.80;99.90;;;;;;5091229;28;20154;-81
2022/09/02 05:37:47;;;;;;;5.88;2.08;;;11.80;99.90;;;;;;5093466;28;20020;-80
2022/09/02 05:40:13;;;;;;;3.95;1.67;;;11.90;99.90;;;;;;5091352;28;20028;-77
2022/09/02 05:42:39;;;;;;;2.17;1.98;;;12.00;99.90;;;;;;5092020;28;20016;-79
2022/09/02 05:45:05;;;;;;;2.17;1.80;;;12.10;99.90;;;;;;5092665;28;20024;-76
2022/09/02 05:47:33;;;;;;;2.33;1.90;;;12.20;99.90;;;;;;5093265;28;20039;-81
2022/09/02 05:50:00;;;;;;;1.95;1.60;;;12.30;99.90;;;;;;5083113;28;20069;-76
2022/09/02 05:52:26;;;;;;;2.58;1.75;;;12.40;99.90;;;;;;5083505;28;20355;-82
2022/09/02 05:54:53;;;;;;;2.03;1.70;;;12.50;99.90;;;;;;5092635;28;20028;-76
2022/09/02 05:57:18;;;;;;;4.05;1.63;;;12.60;99.90;;;;;;5091489;28;20481;-76
2022/09/02 05:59:46;;;;;;;5.20;2.03;;;12.70;99.90;;;;;;5091226;28;20126;-76
2022/09/02 06:02:14;;;;;;;2.85;1.77;;;12.80;99.90;;;;;;5092935;28;20042;-81
2022/09/02 06:04:43;;;;;;;3.03;2.30;;;12.90;99.90;;;;;;5090953;28;20046;-82
2022/09/02 06:07:09;;;;;;;1.77;1.65;;;13.00;99.90;;;;;;5090658;28;20028;-75
2022/09/02 06:09:35;;;;;;;2.50;1.90;;;13.00;99.90;;;;;;5091589;28;20020;-75
2022/09/02 06:12:02;;;;;;;3.38;1.67;;;13.10;99.90;;;;;;5081003;28;20385;-75
2022/09/02 06:14:28;;;;;;;3.45;1.98;;;13.20;99.90;;;;;;5088480;28;20158;-75
2022/09/02 06:16:55;;;;;;;3.28;1.90;;;13.20;99.90;;;;;;5092104;28;20024;-75
2022/09/02 06:19:24;;;;;;;3.88;2.15;;;13.30;99.90;;;;;;5091748;28;20028;-75
2022/09/02 06:21:50;;;;;;;3.22;1.60;;;13.50;99.90;;;;;;5092546;28;20023;-83
2022/09/02 06:24:16;;;;;;;4.05;1.95;;;13.70;99.90;;;;;;5091019;28;20028;-83
2022/09/02 06:26:41;;;;;;;2.33;2.13;;;13.80;99.90;;;;;;5091322;28;20024;-75
2022/09/02 06:29:09;;;;;;;2.17;1.90;;;13.90;99.30;;;;;;5090865;28;20039;-83
2022/09/02 06:31:35;;;;;;;2.03;1.63;;;14.00;95.90;;;;;;5092757;28;20093;-81
2022/09/02 06:34:02;;;;;;;4.25;2.10;;;14.10;97.40;;;;;;5092446;28;20432;-82
2022/09/02 06:36:29;;;;;;;4.88;1.98;;;14.20;97.00;;;;;;5096182;28;20370;-82
2022/09/02 06:38:56;;;;;;;3.72;2.38;;;14.30;96.90;;;;;;5096786;28;20028;-75
2022/09/02 06:41:28;;;;;;;4.93;1.73;;;14.50;96.70;;;;;;5095742;28;20031;-75
2022/09/02 06:43:59;;;;;;;6.82;2.70;;;14.50;96.20;;;;;;5096615;28;20028;-76
2022/09/02 06:46:31;;;;;;;5.55;2.55;;;14.70;94.70;;;;;;5094668;28;20028;-82
2022/09/02 06:48:57;;;;;;;3.10;1.65;;;14.70;90.90;;;;;;5096341;28;20040;-82
2022/09/02 06:51:31;;;;;;;2.42;1.50;;;14.80;90.80;;;;;;5085768;28;20012;-75
2022/09/02 06:53:58;;;;;;;5.70;1.75;;;14.90;91.90;;;;;;5071835;28;20024;-75
2022/09/02 06:56:25;;;;;;;2.67;1.42;;;15.00;89.20;;;;;;5092249;28;20024;-75
2022/09/02 06:58:51;;;;;;;3.15;1.60;;;15.10;87.80;;;;;;5092985;28;20035;-82
2022/09/02 07:01:22;;;;;;;1.42;1.30;;;15.30;86.60;;;;;;5092543;28;20390;-82
2022/09/02 07:06:48;;;;;;;5.63;1.40;;;15.60;83.30;;;;;;5094626;28;20042;-81
2022/09/02 07:09:17;;;;;;;3.63;1.52;;;15.70;82.00;;;;;;5094732;28;20036;-81
2022/09/02 07:11:46;;;;;;;1.50;1.10;;;15.80;80.60;;;;;;5093921;28;20012;-75
2022/09/02 07:14:13;;;;;;;2.25;1.42;;;15.90;78.60;;;;;;5094590;28;20032;-82
2022/09/02 07:16:44;;;;;;;1.73;1.30;;;16.10;79.50;;;;;;5094412;28;20020;-82
2022/09/02 07:19:11;;;;;;;1.65;1.35;;;16.20;78.50;;;;;;5094234;28;20031;-82
2022/09/02 07:21:39;;;;;;;2.38;1.23;;;16.30;77.30;;;;;;5094453;28;20043;-82
2022/09/02 07:24:05;;;;;;;2.42;1.35;;;16.30;76.00;;;;;;5094006;28;20028;-82
2022/09/02 07:26:30;;;;;;;2.30;1.30;;;16.50;76.90;;;;;;5094320;28;20443;-76
2022/09/02 07:28:57;;;;;;;5.03;1.65;;;16.50;75.00;;;;;;5094259;28;20036;-82
2022/09/02 07:31:23;;;;;;;2.53;1.50;;;16.60;75.60;;;;;;5095243;28;20023;-75
2022/09/02 07:33:48;;;;;;;1.75;1.27;;;16.70;74.10;;;;;;5094198;28;20027;-82
2022/09/02 07:36:14;;;;;;;1.80;1.50;;;16.90;74.30;;;;;;5095193;28;20034;-76
2022/09/02 07:38:41;;;;;;;2.38;1.40;;;16.80;73.20;;;;;;5095572;28;20478;-76
2022/09/02 07:41:09;;;;;;;1.27;1.10;;;17.00;73.20;;;;;;5093746;28;20135;-76
2022/09/02 07:43:36;;;;;;;1.55;1.10;;;17.10;70.40;;;;;;5093683;28;20432;-82
2022/09/02 07:46:04;;;;;;;3.40;1.02;;;17.00;68.50;;;;;;5094545;28;20099;-82
2022/09/02 07:48:30;;;;;;;3.35;2.50;;;17.00;68.50;;;;;;5095010;28;20035;-81
2022/09/02 07:50:56;;;;;;;1.38;1.10;;;17.10;69.10;;;;;;5093413;28;20028;-76
2022/09/02 07:53:23;;;;;;;2.83;1.67;;;17.20;69.20;;;;;;5095055;28;20035;-83
2022/09/02 07:55:49;;;;;;;2.67;1.00;;;17.40;69.40;;;;;;5094768;28;20032;-76
2022/09/02 07:58:16;;;;;;;3.05;0.95;;;17.50;66.20;;;;;;5094959;28;20032;-82
2022/09/02 08:00:42;;;;;;;2.28;1.50;;;17.30;65.20;;;;;;5094681;28;20013;-82
2022/09/02 08:03:10;;;;;;;1.60;0.82;;;17.30;64.90;;;;;;5093562;28;20028;-76
2022/09/02 08:05:36;;;;;;;0.73;0.73;;;17.50;65.60;;;;;;5093300;28;20430;-82
2022/09/02 08:08:03;;;;;;;5.00;0.80;;;17.60;64.50;;;;;;5094879;28;20035;-76
2022/09/02 08:10:34;;;;;;;2.03;0.93;;;17.60;63.30;;;;;;5094343;28;20021;-76
2022/09/02 08:13:00;;;;;;;0.70;0.70;;;17.50;62.60;;;;;;5094715;28;20043;-82
2022/09/02 08:15:27;;;;;;;6.05;0.75;;;17.70;63.70;;;;;;5094435;28;20486;-82
2022/09/02 08:17:57;;;;;;;1.58;0.70;;;17.60;60.80;;;;;;5094656;28;20028;-82
2022/09/02 08:20:23;;;;;;;0.75;0.75;;;17.80;60.90;;;;;;5092891;28;20031;-75
2022/09/02 08:22:49;;;;;;;1.08;0.88;;;17.80;59.40;;;;;;5093297;28;20028;-76
2022/09/02 08:25:17;;;;;;;1.02;0.60;;;18.00;60.60;;;;;;5092766;28;20032;-83
2022/09/02 08:27:43;;;;;;;2.10;0.70;;;18.00;59.10;;;;;;5093131;28;20042;-76
2022/09/02 08:30:09;;;;;;;1.08;0.65;;;18.10;59.30;;;;;;5094029;28;20024;-75
2022/09/02 08:32:39;;;;;;;0.60;0.50;;;18.20;58.90;;;;;;5093065;28;20366;-83
2022/09/02 08:35:06;;;;;;;2.10;0.70;;;17.90;58.10;;;;;;5092640;28;20473;-76
2022/09/02 08:37:33;;;;;;;1.95;0.65;;;18.00;58.50;;;;;;5094143;28;20077;-76
2022/09/02 08:40:02;;;;;;;1.05;0.50;;;18.00;57.80;;;;;;5093856;28;20020;-75
2022/09/02 08:42:39;;;;;;;2.63;0.60;;;18.20;56.60;;;;;;5094276;28;20040;-76
2022/09/02 08:45:04;;;;;;;0.80;0.80;;;18.50;57.20;;;;;;5092195;28;20036;-81
2022/09/02 08:47:32;;;;;;;0.60;0.60;;;18.50;56.60;;;;;;5094138;28;20393;-80
2022/09/02 08:50:08;;;;;;;0.70;0.50;;;18.80;57.70;;;;;;5093577;28;20138;-81
2022/09/02 08:53:01;;;;;;;1.75;0.40;;;18.40;55.30;;;;;;5094156;28;20024;-81
2022/09/02 08:55:42;;;;;;;1.17;0.82;;;18.10;55.40;;;;;;5093612;28;20028;-83
2022/09/02 08:58:08;;;;;;;2.00;0.70;;;17.80;55.70;;;;;;5093397;28;20020;-76
2022/09/02 09:00:41;;;;;;;1.50;0.75;;;17.60;56.10;;;;;;5092176;28;20461;-76
2022/09/02 09:03:19;;;;;;;0.40;0.40;;;17.50;56.60;;;;;;5084202;28;20023;-83
2022/09/02 09:06:03;;;;;;;2.08;0.50;;;17.80;56.30;;;;;;5091830;28;20066;-83
2022/09/02 09:08:46;;;;;;;0.55;0.50;;;18.00;54.60;;;;;;5088317;28;20043;-84
2022/09/02 09:11:41;;;;;;;0.80;0.40;;;18.20;54.10;;;;;;5081357;28;20012;-83
2022/09/02 09:14:20;;;;;;;1.77;0.50;;;18.30;52.30;;;;;;5083870;28;20450;-83
2022/09/02 09:16:57;;;;;;;0.77;0.47;;;18.50;51.80;;;;;;5082134;28;20355;-84
2022/09/02 09:19:46;;;;;;;1.00;0.20;;;18.80;52.90;;;;;;5080011;28;20047;-83
2022/09/02 09:22:16;;;;;;;1.33;0.57;;;19.00;51.80;;;;;;5081271;28;20040;-83
2022/09/02 09:24:44;;;;;;;0.65;0.30;;;19.00;51.30;;;;;;5088837;28;20477;-84
2022/09/02 09:27:16;;;;;;;2.42;0.47;;;19.30;51.50;;;;;;5092883;28;20034;-83
2022/09/02 09:29:42;;;;;;;1.47;0.60;;;19.40;50.90;;;;;;5085817;28;20023;-83
2022/09/02 09:32:14;;;;;;;1.00;0.40;;;19.50;51.40;;;;;;5093429;28;20446;-83
2022/09/02 09:34:51;;;;;;;0.30;0.30;;;19.70;51.80;;;;;;5092816;28;20051;-83
2022/09/02 09:37:29;;;;;;;0.60;0.50;;;19.70;50.20;;;;;;5091474;28;20077;-77
2022/09/02 09:39:55;;;;;;;1.88;0.60;;;19.60;48.80;;;;;;5091237;28;20066;-83
2022/09/02 09:42:33;;;;;;;1.40;0.40;;;19.40;49.70;;;;;;5090097;28;20051;-83
2022/09/02 09:44:59;;;;;;;0.57;0.40;;;18.80;50.10;;;;;;5092399;28;20104;-84
2022/09/02 09:47:26;;;;;;;0.45;0.45;;;18.50;51.40;;;;;;5092494;28;20154;-83
2022/09/02 09:50:08;;;;;;;1.85;0.80;;;18.20;51.80;;;;;;5092051;28;20028;-76
2022/09/02 09:52:33;;;;;;;0.77;0.77;;;18.20;51.60;;;;;;5092468;28;20512;-84
2022/09/02 09:55:14;;;;;;;0.40;0.40;;;18.30;52.50;;;;;;5092746;28;20052;-84
2022/09/02 09:57:42;;;;;;;1.90;0.50;;;18.70;52.20;;;;;;5093052;28;20037;-83
2022/09/02 10:00:28;;;;;;;1.42;1.33;;;18.60;51.20;;;;;;5091705;28;20022;-76
2022/09/02 10:03:00;;;;;;;0.43;0.40;;;18.50;50.70;;;;;;5093176;28;20432;-84
2022/09/02 10:05:25;;;;;;;1.50;0.73;;;18.10;50.90;;;;;;5092273;28;20120;-84
2022/09/02 10:08:14;;;;;;;0.85;0.43;;;17.90;51.70;;;;;;5091701;28;20118;-84
2022/09/02 10:10:59;;;;;;;5.28;0.57;;;17.70;53.60;;;;;;5085442;28;20469;-83
2022/09/02 10:13:31;;;;;;;1.75;0.30;;;17.60;53.90;;;;;;5095984;28;20020;-81
2022/09/02 10:16:06;;;;;;;0.35;0.35;;;17.60;54.20;;;;;;5095807;28;20099;-84
2022/09/02 10:19:02;;;;;;;0.95;0.50;;;17.70;52.90;;;;;;5097164;28;20024;-75
2022/09/02 10:21:42;;;;;;;0.50;0.50;;;17.60;52.10;;;;;;5097058;28;20032;-83
2022/09/02 10:24:19;;;;;;;1.17;0.50;;;17.50;52.30;;;;;;5096854;28;20016;-83
2022/09/02 10:26:51;;;;;;;0.30;0.30;;;17.50;52.30;;;;;;5095760;28;20117;-75
2022/09/02 10:29:38;;;;;;;0.63;0.40;;;17.40;51.90;;;;;;5096720;28;20401;-76
2022/09/02 10:32:35;;;;;;;2.17;0.57;;;17.40;51.70;;;;;;5095439;28;20035;-76
2022/09/02 10:35:12;;;;;;;0.47;0.40;;;17.30;53.00;;;;;;5095537;28;20032;-76
2022/09/02 10:37:59;;;;;;;0.40;0.40;;;17.40;53.00;;;;;;5088867;28;20052;-84
2022/09/02 10:40:49;;;;;;;0.60;0.60;;;17.40;52.40;;;;;;5091466;28;20036;-84
2022/09/02 10:43:26;;;;;;;0.75;0.30;;;17.50;52.90;;;;;;5112170;28;20114;-85
2022/09/02 10:45:58;;;;;;;1.40;0.40;;;17.40;53.10;;;;;;5091548;28;20371;-84
2022/09/02 10:49:01;;;;;;;0.57;0.40;;;17.80;53.10;;;;;;5093354;28;20127;-84
2022/09/02 10:51:41;;;;;;;1.55;0.50;;;18.10;52.20;;;;;;5094522;28;20024;-84
2022/09/02 10:54:19;;;;;;;1.02;0.40;;;18.50;50.90;;;;;;5098037;28;20016;-84
2022/09/02 10:56:56;;;;;;;0.75;0.68;;;18.60;50.60;;;;;;5082420;28;20034;-78
2022/09/02 10:59:31;;;;;;;1.17;0.52;;;18.50;50.40;;;;;;5095748;28;20154;-84
2022/09/02 11:02:06;;;;;;;0.73;0.40;;;18.80;51.20;;;;;;5087887;28;20382;-85
2022/09/02 11:04:39;;;;;;;1.65;0.63;;;18.70;50.10;;;;;;5082503;28;20048;-87
2022/09/02 11:07:12;;;;;;;0.57;0.45;;;18.50;50.40;;;;;;5087451;28;20031;-77
2022/09/02 11:09:44;;;;;;;0.40;0.40;;;18.60;50.60;;;;;;5094168;28;20108;-85
2022/09/02 11:12:26;;;;;;;0.95;0.60;;;18.70;51.30;;;;;;5092246;28;20012;-84
2022/09/02 11:15:03;;;;;;;0.95;0.75;;;18.70;50.50;;;;;;5103056;28;20024;-77
2022/09/02 11:17:45;;;;;;;1.02;0.50;;;18.70;49.70;;;;;;5094282;28;20623;-85
2022/09/02 11:20:43;;;;;;;2.63;0.60;;;18.80;48.90;;;;;;5093950;28;20020;-85
2022/09/02 11:23:30;;;;;;;1.05;0.43;;;19.20;48.70;;;;;;5068543;28;20024;-78
2022/09/02 11:26:14;;;;;;;0.65;0.52;;;19.40;48.40;;;;;;5094105;28;20047;-85
2022/09/02 11:28:54;;;;;;;0.32;0.30;;;18.90;48.10;;;;;;5094010;28;20036;-79
2022/09/02 11:31:29;;;;;;;1.38;0.57;;;18.90;46.50;;;;;;5092205;28;20070;-78
2022/09/02 11:33:57;;;;;;;2.75;0.50;;;19.10;45.70;;;;;;5086837;28;20300;-78
2022/09/02 11:36:25;;;;;;;0.80;0.40;;;19.10;46.80;;;;;;5084925;28;20108;-79
2022/09/02 11:38:57;;;;;;;0.57;0.43;;;19.30;46.90;;;;;;5083277;28;20028;-78
2022/09/02 11:41:41;;;;;;;;;;;19.20;47.40;;;;;;5084982;28;20015;-79
2022/09/02 11:44:27;;;;;;;0.40;0.40;;;18.90;48.00;;;;;;5082291;28;19915;-77
2022/09/02 11:46:57;;;;;;;1.35;0.52;;;18.50;48.40;;;;;;5085555;28;20076;-77
2022/09/02 11:49:35;;;;;;;1.27;0.40;;;18.70;48.10;;;;;;5089132;28;20040;-76
2022/09/02 11:52:27;;;;;;;1.05;0.60;;;18.70;47.00;;;;;;5081920;28;20035;-77
2022/09/02 11:55:24;;;;;;;1.40;0.40;;;18.70;46.10;;;;;;5082824;28;20040;-76
2022/09/02 11:57:56;;;;;;;1.17;0.63;;;18.60;46.20;;;;;;5067026;28;20405;-77
2022/09/02 12:00:28;;;;;;;0.65;0.65;;;18.50;46.90;;;;;;5081326;28;20046;-77
2022/09/02 12:03:05;;;;;;;1.20;0.55;;;18.70;46.50;;;;;;5081968;28;20026;-85
2022/09/02 12:05:31;;;;;;;1.02;0.57;;;18.80;46.10;;;;;;5084600;28;20024;-77
2022/09/02 12:08:17;;;;;;;0.68;0.50;;;18.90;47.00;;;;;;5084409;28;20036;-84
2022/09/02 12:10:43;;;;;;;0.95;0.60;;;18.90;46.60;;;;;;5079039;28;20598;-84
2022/09/02 12:13:10;;;;;;;0.60;0.52;;;19.00;46.60;;;;;;5084987;28;20020;-83
2022/09/02 12:15:37;;;;;;;2.53;1.15;;;19.10;46.80;;;;;;5083344;28;20043;-84
2022/09/02 12:18:29;;;;;;;2.50;0.50;;;19.10;46.40;;;;;;5082137;28;20021;-83
2022/09/02 12:20:58;;;;;;;0.63;0.63;;;19.00;46.90;;;;;;5081957;28;20508;-83
2022/09/02 12:23:54;;;;;;;0.52;0.52;;;18.90;46.80;;;;;;5083652;28;20028;-84
2022/09/02 12:26:47;;;;;;;1.30;0.85;;;18.60;47.20;;;;;;5084517;28;20020;-78
2022/09/02 12:29:31;;;;;;;1.23;0.38;;;18.60;48.60;;;;;;5081138;28;20048;-77
2022/09/02 12:31:57;;;;;;;0.50;0.50;;;18.90;48.20;;;;;;5115705;27;20024;-84
2022/09/02 12:34:24;;;;;;;0.50;0.50;;;19.40;48.20;;;;;;5082522;28;20027;-79
2022/09/02 12:37:01;;;;;;;1.30;0.47;;;19.80;47.00;;;;;;5082615;28;20046;-79
2022/09/02 12:39:27;;;;;;;0.95;0.50;;;20.10;46.00;;;;;;5083096;28;20029;-82
2022/09/02 12:42:00;;;;;;;0.73;0.73;;;20.00;45.60;;;;;;5086366;28;20500;-81
2022/09/02 12:44:40;;;;;;;0.40;0.40;;;19.90;45.90;;;;;;5065132;28;20029;-77
2022/09/02 12:47:18;;;;;;;0.63;0.40;;;19.90;45.40;;;;;;5086586;28;20031;-78
2022/09/02 12:50:27;;;;;;;0.52;0.45;;;20.10;45.40;;;;;;5087040;28;20056;-77
2022/09/02 12:53:06;;;;;;;0.40;0.40;;;20.00;45.40;;;;;;5009338;28;20029;-78
2022/09/02 12:55:34;;;;;;;0.47;0.30;;;19.70;45.40;;;;;;5027094;28;20044;-77
2022/09/02 12:58:11;;;;;;;2.47;0.60;;;19.60;45.90;;;;;;5068346;28;20040;-86
2022/09/02 13:00:45;;;;;;;5.03;0.60;;;19.30;45.30;;;;;;5089773;28;20027;-77
2022/09/02 13:03:35;;;;;;;3.25;0.50;;;19.30;45.70;;;;;;5090060;28;20055;-77
2022/09/02 13:06:22;;;;;;;1.75;0.50;;;19.50;46.10;;;;;;5091041;28;20077;-76
2022/09/02 13:09:26;;;;;;;6.88;0.80;;;19.60;45.80;;;;;;5086322;28;20028;-77
2022/09/02 13:12:00;;;;;;;0.70;0.57;;;19.80;45.20;;;;;;5093214;28;20032;-77